createdAt,value
2022-09-09T00:01:39.536Z,55.86
2022-09-09T00:04:16.867Z,55.89
2022-09-09T00:07:03.649Z,55.97
2022-09-09T00:09:59.867Z,55.86
2022-09-09T00:13:02.150Z,55.99
2022-09-09T00:15:48.537Z,56.14
2022-09-09T00:18:48.654Z,55.77
2022-09-09T00:21:19.088Z,55.95
2022-09-09T00:23:56.875Z,56.03
2022-09-09T00:26:49.700Z,55.71
2022-09-09T00:30:00.702Z,55.86
2022-09-09T00:32:36.864Z,55.78
2022-09-09T00:35:23.228Z,55.82
2022-09-09T00:37:57.502Z,55.92
2022-09-09T00:40:36.763Z,55.61
2022-09-09T00:43:28.894Z,55.96
2022-09-09T00:46:35.154Z,56.14
2022-09-09T00:49:15.536Z,56.11
2022-09-09T00:52:10.762Z,56.04
2022-09-09T00:54:47.878Z,55.85
2022-09-09T00:57:32.661Z,55.75
2022-09-09T01:00:30.073Z,55.62
2022-09-09T01:03:23.372Z,55.75
2022-09-09T01:06:29.852Z,55.55
2022-09-09T01:09:39.568Z,55.57
2022-09-09T01:12:17.450Z,55.56
2022-09-09T01:15:24.551Z,55.72
2022-09-09T01:18:09.040Z,55.74
2022-09-09T01:21:06.281Z,55.69
2022-09-09T01:24:18.369Z,55.59
2022-09-09T01:27:07.776Z,56.19
2022-09-09T01:29:37.331Z,56.11
2022-09-09T01:32:42.956Z,55.73
2022-09-09T01:35:58.056Z,55.79
2022-09-09T01:38:34.293Z,56.08
2022-09-09T01:41:02.982Z,55.80
2022-09-09T01:43:42.815Z,55.74
2022-09-09T01:46:13.684Z,55.86
2022-09-09T01:48:46.977Z,55.91
2022-09-09T01:51:16.816Z,55.67
2022-09-09T01:53:47.973Z,55.51
2022-09-09T01:56:38.672Z,55.30
2022-09-09T01:59:34.266Z,55.39
2022-09-09T02:02:19.327Z,55.42
2022-09-09T02:05:14.117Z,55.51
2022-09-09T02:07:48.815Z,55.71
2022-09-09T02:11:07.817Z,55.73
2022-09-09T02:14:23.407Z,55.84
2022-09-09T02:17:03.207Z,55.78
2022-09-09T02:19:56.656Z,55.85
2022-09-09T02:22:37.401Z,55.97
2022-09-09T02:25:06.846Z,56.16
2022-09-09T02:27:37.055Z,56.18
2022-09-09T02:30:07.141Z,56.26
2022-09-09T02:32:50.011Z,55.81
2022-09-09T02:35:25.904Z,55.88
2022-09-09T02:37:57.948Z,55.82
2022-09-09T02:40:34.367Z,55.95
2022-09-09T02:43:05.560Z,55.89
2022-09-09T02:46:03.632Z,55.66
2022-09-09T02:49:02.843Z,55.87
2022-09-09T02:52:16.396Z,55.76
2022-09-09T02:54:44.490Z,56.02
2022-09-09T02:57:18.281Z,55.90
2022-09-09T02:59:54.233Z,56.01
2022-09-09T03:02:22.554Z,56.16
2022-09-09T03:04:57.084Z,56.01
2022-09-09T03:07:25.087Z,56.13
2022-09-09T03:09:54.992Z,56.19
2022-09-09T03:12:25.578Z,56.04
2022-09-09T03:14:53.730Z,56.18
2022-09-09T03:17:23.084Z,56.08
2022-09-09T03:19:57.016Z,56.02
2022-09-09T03:22:26.722Z,55.99
2022-09-09T03:24:56.112Z,55.93
2022-09-09T03:27:23.992Z,56.00
2022-09-09T03:29:53.992Z,55.93
2022-09-09T03:32:27.649Z,56.22
2022-09-09T03:34:58.346Z,56.35
2022-09-09T03:37:30.124Z,56.22
2022-09-09T03:40:01.142Z,56.23
2022-09-09T03:42:30.971Z,56.17
2022-09-09T03:45:00.436Z,56.15
2022-09-09T03:47:28.552Z,56.02
2022-09-09T03:50:09.698Z,56.11
2022-09-09T03:52:43.529Z,55.90
2022-09-09T03:55:17.976Z,56.13
2022-09-09T03:57:47.370Z,56.04
2022-09-09T04:00:16.555Z,55.94
2022-09-09T04:02:44.992Z,55.99
2022-09-09T04:05:17.047Z,56.03
2022-09-09T04:07:48.464Z,56.05
2022-09-09T04:10:16.840Z,56.05
2022-09-09T04:12:49.412Z,55.92
2022-09-09T04:15:19.347Z,55.90
2022-09-09T04:17:48.339Z,56.12
2022-09-09T04:20:16.516Z,56.08
2022-09-09T04:22:45.136Z,56.19
2022-09-09T04:25:14.662Z,56.03
2022-09-09T04:27:43.905Z,56.07
2022-09-09T04:30:13.279Z,56.27
2022-09-09T04:32:42.665Z,56.33
2022-09-09T04:35:12.076Z,56.09
2022-09-09T04:37:40.977Z,56.24
2022-09-09T04:40:13.166Z,56.13
2022-09-09T04:42:45.241Z,56.16
2022-09-09T04:45:16.117Z,56.21
2022-09-09T04:47:44.191Z,56.07
2022-09-09T04:50:13.288Z,56.11
2022-09-09T04:52:42.364Z,56.16
2022-09-09T04:55:10.789Z,55.85
2022-09-09T04:57:41.322Z,56.12
2022-09-09T05:00:14.802Z,56.00
2022-09-09T05:02:44.266Z,56.24
2022-09-09T05:05:13.490Z,55.96
2022-09-09T05:07:43.059Z,56.02
2022-09-09T05:10:15.391Z,56.13
2022-09-09T05:12:44.165Z,56.12
2022-09-09T05:15:12.762Z,56.02
2022-09-09T05:17:40.871Z,56.13
2022-09-09T05:20:11.882Z,55.95
2022-09-09T05:22:43.986Z,56.16
2022-09-09T05:25:12.362Z,55.65
2022-09-09T05:27:42.043Z,55.60
2022-09-09T05:30:11.833Z,55.65
2022-09-09T05:32:41.466Z,55.67
2022-09-09T05:35:10.025Z,55.41
2022-09-09T05:37:38.580Z,55.44
2022-09-09T05:40:08.579Z,55.32
2022-09-09T05:42:36.938Z,55.28
2022-09-09T05:45:09.952Z,55.25
2022-09-09T05:47:38.982Z,55.24
2022-09-09T05:50:10.127Z,55.22
2022-09-09T05:52:38.669Z,55.20
2022-09-09T05:55:10.625Z,55.08
2022-09-09T05:57:38.709Z,55.00
2022-09-09T06:00:09.466Z,54.85
2022-09-09T06:02:42.432Z,54.91
2022-09-09T06:05:16.307Z,54.93
2022-09-09T06:07:46.603Z,54.77
2022-09-09T06:10:16.155Z,54.89
2022-09-09T06:12:45.590Z,54.92
2022-09-09T06:15:14.345Z,55.05
2022-09-09T06:17:44.501Z,54.92
2022-09-09T06:20:15.813Z,54.76
2022-09-09T06:22:44.371Z,54.70
2022-09-09T06:25:13.584Z,54.64
2022-09-09T06:28:03.360Z,54.68
2022-09-09T06:31:00.818Z,54.09
2022-09-09T06:33:52.360Z,54.09
2022-09-09T06:36:28.011Z,54.09
2022-09-09T06:38:56.998Z,53.98
2022-09-09T06:41:29.032Z,53.92
2022-09-09T06:43:59.046Z,53.77
2022-09-09T06:46:37.112Z,53.71
2022-09-09T06:49:07.093Z,53.62
2022-09-09T06:51:43.687Z,53.49
2022-09-09T06:54:15.366Z,53.34
2022-09-09T06:56:48.370Z,53.56
2022-09-09T06:59:23.421Z,53.39
2022-09-09T07:01:56.633Z,53.54
2022-09-09T07:04:27.387Z,53.49
2022-09-09T07:06:55.729Z,53.39
2022-09-09T07:09:28.389Z,53.41
2022-09-09T07:11:59.339Z,53.50
2022-09-09T07:14:28.673Z,53.26
2022-09-09T07:17:01.844Z,53.06
2022-09-09T07:19:38.169Z,52.76
2022-09-09T07:22:11.722Z,53.07
2022-09-09T07:24:46.093Z,52.49
2022-09-09T07:27:16.859Z,52.69
2022-09-09T07:29:46.662Z,52.36
2022-09-09T07:32:16.860Z,52.34
2022-09-09T07:34:45.193Z,52.20
2022-09-09T07:37:14.603Z,51.81
2022-09-09T07:39:45.878Z,51.67
2022-09-09T07:42:17.442Z,51.66
2022-09-09T07:44:45.466Z,52.21
2022-09-09T07:47:17.467Z,52.42
2022-09-09T07:49:52.371Z,52.01
2022-09-09T07:52:29.029Z,51.53
2022-09-09T07:55:03.292Z,51.59
2022-09-09T07:57:35.231Z,51.59
2022-09-09T08:00:06.068Z,51.35
2022-09-09T08:02:42.103Z,51.35
2022-09-09T08:05:14.085Z,51.18
2022-09-09T08:07:42.668Z,51.41
2022-09-09T08:10:11.061Z,50.95
2022-09-09T08:13:01.539Z,50.99
2022-09-09T08:15:34.998Z,50.68
2022-09-09T08:18:04.641Z,50.72
2022-09-09T08:20:32.887Z,50.22
2022-09-09T08:23:03.122Z,50.18
2022-09-09T08:25:32.573Z,49.82
2022-09-09T08:28:02.536Z,49.73
2022-09-09T08:30:33.481Z,50.59
2022-09-09T08:33:03.378Z,50.38
2022-09-09T08:35:33.579Z,50.69
2022-09-09T08:38:04.633Z,50.95
2022-09-09T08:40:42.674Z,50.79
2022-09-09T08:43:11.264Z,50.77
2022-09-09T08:46:19.600Z,50.61
2022-09-09T08:49:04.414Z,51.19
2022-09-09T08:51:35.184Z,50.74
2022-09-09T08:54:05.523Z,50.53
2022-09-09T08:56:38.313Z,50.35
2022-09-09T08:59:15.109Z,49.77
2022-09-09T09:02:12.337Z,49.49
2022-09-09T09:05:48.320Z,49.73
2022-09-09T09:08:47.537Z,49.42
2022-09-09T09:11:17.346Z,49.26
2022-09-09T09:14:01.085Z,48.43
2022-09-09T09:16:55.187Z,48.38
2022-09-09T09:19:27.391Z,48.24
2022-09-09T09:22:42.393Z,47.73
2022-09-09T09:25:24.284Z,48.18
2022-09-09T09:28:19.260Z,48.17
2022-09-09T09:31:09.798Z,48.58
2022-09-09T09:33:42.664Z,48.25
2022-09-09T09:36:12.287Z,47.95
2022-09-09T09:41:51.097Z,47.58
2022-09-09T09:44:40.788Z,46.89
2022-09-09T09:47:23.105Z,46.74
2022-09-09T09:50:22.813Z,46.37
2022-09-09T09:53:07.676Z,46.42
2022-09-09T09:55:55.418Z,45.88
2022-09-09T09:58:26.632Z,45.62
2022-09-09T10:00:56.258Z,45.90
2022-09-09T10:03:32.417Z,46.11
2022-09-09T10:06:02.816Z,45.85
2022-09-09T10:08:34.611Z,46.13
2022-09-09T10:11:44.037Z,46.20
2022-09-09T10:14:26.457Z,45.75
2022-09-09T10:17:10.405Z,45.52
2022-09-09T10:19:42.969Z,45.25
2022-09-09T10:22:33.174Z,45.14
2022-09-09T10:25:42.804Z,45.25
2022-09-09T10:28:50.292Z,45.43
2022-09-09T10:31:45.433Z,45.12
2022-09-09T10:34:59.888Z,44.91
2022-09-09T10:37:56.937Z,44.51
2022-09-09T10:40:56.515Z,44.20
2022-09-09T10:44:15.511Z,44.26
2022-09-09T10:47:08.588Z,44.12
2022-09-09T10:50:14.976Z,43.80
2022-09-09T10:53:14.812Z,43.62
2022-09-09T10:56:05.986Z,43.51
2022-09-09T10:58:58.609Z,42.99
2022-09-09T11:01:46.320Z,42.62
2022-09-09T11:04:28.204Z,42.17
2022-09-09T11:06:57.119Z,41.87
2022-09-09T11:09:31.823Z,41.88
2022-09-09T11:12:05.757Z,41.90
2022-09-09T11:14:47.710Z,41.68
2022-09-09T11:17:25.589Z,41.53
2022-09-09T11:19:53.674Z,41.12
2022-09-09T11:23:13.229Z,40.61
2022-09-09T11:25:49.264Z,40.84
2022-09-09T11:28:38.092Z,40.89
2022-09-09T11:31:45.759Z,40.54
2022-09-09T11:34:38.452Z,40.39
2022-09-09T11:38:04.490Z,40.49
2022-09-09T11:40:35.378Z,40.08
2022-09-09T11:43:14.422Z,41.25
2022-09-09T11:45:44.742Z,40.34
2022-09-09T11:48:36.554Z,40.05
2022-09-09T11:51:34.913Z,40.08
2022-09-09T11:54:33.474Z,39.86
2022-09-09T11:57:27.629Z,39.79
2022-09-09T11:59:56.782Z,39.80
2022-09-09T12:02:33.311Z,39.57
2022-09-09T12:05:11.153Z,39.75
2022-09-09T12:07:50.714Z,39.64
2022-09-09T12:10:39.052Z,39.77
2022-09-09T12:13:26.924Z,40.03
2022-09-09T12:15:59.400Z,39.97
2022-09-09T12:18:38.246Z,39.85
2022-09-09T12:21:39.027Z,39.98
2022-09-09T12:24:43.140Z,39.54
2022-09-09T12:27:34.082Z,39.25
2022-09-09T12:30:12.017Z,39.12
2022-09-09T12:32:41.141Z,39.11
2022-09-09T12:35:31.901Z,39.03
2022-09-09T12:38:05.973Z,39.74
2022-09-09T12:40:40.253Z,40.55
2022-09-09T12:43:24.437Z,41.18
2022-09-09T12:46:08.717Z,42.09
2022-09-09T12:48:45.753Z,42.84
2022-09-09T12:51:35.744Z,43.34
2022-09-09T12:54:05.635Z,44.04
2022-09-09T12:56:35.205Z,44.58
2022-09-09T12:59:05.407Z,44.63
2022-09-09T13:01:35.154Z,45.26
2022-09-09T13:04:21.138Z,45.28
2022-09-09T13:06:51.025Z,45.87
2022-09-09T13:09:21.142Z,46.04
2022-09-09T13:12:00.681Z,46.48
2022-09-09T13:14:33.824Z,46.32
2022-09-09T13:17:08.285Z,45.82
2022-09-09T13:19:39.675Z,44.99
2022-09-09T13:22:34.238Z,45.34
2022-09-09T13:25:29.571Z,45.53
2022-09-09T13:28:04.783Z,45.94
2022-09-09T13:30:42.599Z,46.23
2022-09-09T13:33:15.818Z,45.89
2022-09-09T13:35:56.822Z,45.72
2022-09-09T13:38:28.010Z,45.42
2022-09-09T13:41:05.641Z,45.29
2022-09-09T13:43:44.504Z,45.22
2022-09-09T13:46:44.592Z,45.55
2022-09-09T13:49:12.570Z,45.58
2022-09-09T13:51:55.600Z,44.85
2022-09-09T13:54:24.099Z,45.05
2022-09-09T13:56:52.402Z,44.83
2022-09-09T13:59:21.466Z,44.93
2022-09-09T14:01:53.511Z,44.76
2022-09-09T14:04:25.026Z,44.89
2022-09-09T14:06:52.878Z,44.94
2022-09-09T14:09:20.943Z,44.83
2022-09-09T14:11:48.893Z,44.77
2022-09-09T14:14:18.124Z,44.58
2022-09-09T14:16:46.454Z,44.87
2022-09-09T14:19:15.145Z,45.04
2022-09-09T14:21:43.880Z,45.52
2022-09-09T14:24:13.006Z,46.32
2022-09-09T14:26:43.553Z,46.79
2022-09-09T14:29:14.666Z,46.99
2022-09-09T14:31:43.653Z,46.93
2022-09-09T14:34:12.182Z,46.23
2022-09-09T14:36:42.521Z,45.98
2022-09-09T14:39:12.274Z,45.54
2022-09-09T14:41:41.101Z,45.12
2022-09-09T14:44:09.845Z,45.07
2022-09-09T14:46:37.627Z,45.03
2022-09-09T14:49:05.823Z,45.56
2022-09-09T14:51:34.420Z,45.34
2022-09-09T14:54:03.479Z,45.71
2022-09-09T14:56:37.531Z,46.20
2022-09-09T14:59:07.352Z,46.27
2022-09-09T15:01:36.180Z,46.29
2022-09-09T15:04:07.011Z,46.24
2022-09-09T15:06:40.621Z,46.15
2022-09-09T15:09:09.947Z,46.16
2022-09-09T15:11:39.509Z,45.92
2022-09-09T15:14:10.305Z,45.81
2022-09-09T15:16:41.534Z,45.75
2022-09-09T15:19:11.729Z,46.33
2022-09-09T15:21:40.152Z,46.64
2022-09-09T15:24:09.663Z,46.69
2022-09-09T15:26:42.301Z,47.00
2022-09-09T15:29:10.759Z,46.74
2022-09-09T15:31:38.910Z,47.07
2022-09-09T15:34:09.232Z,46.83
2022-09-09T15:36:41.304Z,46.80
2022-09-09T15:39:16.799Z,46.80
2022-09-09T15:41:49.825Z,46.68
2022-09-09T15:44:18.263Z,46.70
2022-09-09T15:46:50.976Z,46.64
2022-09-09T15:49:27.275Z,46.44
2022-09-09T15:52:03.606Z,46.21
2022-09-09T15:54:40.278Z,46.38
2022-09-09T15:57:13.784Z,46.44
2022-09-09T15:59:41.710Z,46.26
2022-09-09T16:02:13.079Z,46.73
2022-09-09T16:04:41.568Z,46.91
2022-09-09T16:07:10.375Z,46.85
2022-09-09T16:09:38.727Z,46.94
2022-09-09T16:12:10.911Z,47.02
2022-09-09T16:14:40.094Z,46.79
2022-09-09T16:17:09.450Z,46.80
2022-09-09T16:19:37.454Z,46.99
2022-09-09T16:22:07.854Z,47.00
2022-09-09T16:24:36.246Z,47.33
2022-09-09T16:27:05.086Z,47.40
2022-09-09T16:29:34.582Z,47.37
2022-09-09T16:32:04.553Z,47.25
2022-09-09T16:34:34.892Z,47.48
2022-09-09T16:37:03.142Z,47.51
2022-09-09T16:39:31.039Z,47.56
2022-09-09T16:41:58.837Z,47.88
2022-09-09T16:44:27.154Z,47.96
2022-09-09T16:47:00.470Z,47.95
2022-09-09T16:49:29.449Z,48.37
2022-09-09T16:52:00.527Z,48.50
2022-09-09T16:54:30.877Z,48.14
2022-09-09T16:57:00.627Z,47.97
2022-09-09T16:59:28.856Z,48.13
2022-09-09T17:01:56.910Z,48.14
2022-09-09T17:04:29.031Z,48.24
2022-09-09T17:07:01.534Z,48.73
2022-09-09T17:09:30.436Z,48.71
2022-09-09T17:11:58.564Z,48.95
2022-09-09T17:14:26.566Z,49.10
2022-09-09T17:16:54.569Z,49.11
2022-09-09T17:19:22.974Z,49.15
2022-09-09T17:22:15.482Z,49.28
2022-09-09T17:24:41.480Z,49.40
2022-09-09T17:27:10.543Z,49.14
2022-09-09T17:29:38.968Z,49.20
2022-09-09T17:32:08.571Z,49.46
2022-09-09T17:34:38.027Z,49.52
2022-09-09T17:37:07.316Z,49.73
2022-09-09T17:39:35.696Z,49.74
2022-09-09T17:42:04.661Z,49.76
2022-09-09T17:44:33.643Z,49.93
2022-09-09T17:47:05.061Z,50.35
2022-09-09T17:49:33.086Z,50.36
2022-09-09T17:52:01.395Z,50.25
2022-09-09T17:54:29.440Z,50.43
2022-09-09T17:57:00.323Z,50.54
2022-09-09T17:59:30.089Z,50.65
2022-09-09T18:01:58.265Z,50.80
2022-09-09T18:04:26.443Z,51.20
2022-09-09T18:06:55.798Z,51.28
2022-09-09T18:09:26.589Z,51.31
2022-09-09T18:11:58.625Z,51.26
2022-09-09T18:14:34.541Z,51.43
2022-09-09T18:17:04.754Z,51.46
2022-09-09T18:19:33.555Z,51.96
2022-09-09T18:22:05.526Z,51.84
2022-09-09T18:24:36.743Z,51.88
2022-09-09T18:27:05.183Z,52.18
2022-09-09T18:29:33.668Z,52.15
2022-09-09T18:32:02.055Z,52.02
2022-09-09T18:34:31.096Z,52.30
2022-09-09T18:36:59.501Z,52.14
2022-09-09T18:39:29.689Z,52.36
2022-09-09T18:42:01.662Z,52.43
2022-09-09T18:44:34.754Z,52.29
2022-09-09T18:47:03.747Z,52.55
2022-09-09T18:49:33.424Z,52.60
2022-09-09T18:52:02.738Z,52.67
2022-09-09T18:54:34.366Z,52.95
2022-09-09T18:57:02.609Z,52.72
2022-09-09T18:59:32.313Z,52.87
2022-09-09T19:02:00.957Z,52.95
2022-09-09T19:04:31.917Z,52.87
2022-09-09T19:07:00.413Z,52.64
2022-09-09T19:09:34.361Z,52.65
2022-09-09T19:12:04.602Z,52.97
2022-09-09T19:14:33.910Z,52.99
2022-09-09T19:17:02.888Z,53.40
2022-09-09T19:19:33.369Z,54.01
2022-09-09T19:22:03.084Z,56.59
2022-09-09T19:24:35.369Z,57.69
2022-09-09T19:27:07.242Z,58.75
2022-09-09T19:29:39.646Z,59.46
2022-09-09T19:32:42.702Z,60.11
2022-09-09T19:34:57.844Z,60.96
2022-09-09T19:37:25.900Z,61.55
2022-09-09T19:39:54.625Z,62.02
2022-09-09T19:42:24.461Z,62.37
2022-09-09T19:44:52.798Z,62.91
2022-09-09T19:47:24.208Z,63.08
2022-09-09T19:49:53.832Z,63.36
2022-09-09T19:52:24.314Z,63.63
2022-09-09T19:54:54.571Z,63.94
2022-09-09T19:57:24.132Z,64.17
2022-09-09T19:59:52.104Z,64.55
2022-09-09T20:02:20.856Z,64.92
2022-09-09T20:04:49.762Z,65.11
2022-09-09T20:07:19.274Z,65.34
2022-09-09T20:09:47.395Z,65.57
2022-09-09T20:12:17.051Z,65.52
2022-09-09T20:14:47.026Z,65.87
2022-09-09T20:17:15.248Z,66.15
2022-09-09T20:19:45.173Z,66.17
2022-09-09T20:22:14.846Z,66.20
2022-09-09T20:24:44.338Z,66.25
2022-09-09T20:27:13.277Z,66.46
2022-09-09T20:29:41.752Z,66.46
2022-09-09T20:32:12.719Z,66.83
2022-09-09T20:34:42.386Z,67.17
2022-09-09T20:37:13.737Z,67.44
2022-09-09T20:39:42.966Z,67.25
2022-09-09T20:42:11.626Z,67.54
2022-09-09T20:44:40.182Z,67.62
2022-09-09T20:47:09.612Z,67.51
2022-09-09T20:49:37.826Z,67.96
2022-09-09T20:52:06.939Z,67.77
2022-09-09T20:54:35.996Z,68.00
2022-09-09T20:57:06.579Z,68.10
2022-09-09T20:59:37.779Z,68.16
2022-09-09T21:02:06.615Z,68.31
2022-09-09T21:04:36.030Z,68.20
2022-09-09T21:07:04.675Z,68.44
2022-09-09T21:09:32.561Z,68.58
2022-09-09T21:12:00.448Z,68.32
2022-09-09T21:14:28.252Z,68.24
2022-09-09T21:16:56.076Z,68.25
2022-09-09T21:19:25.096Z,68.53
2022-09-09T21:21:52.995Z,68.63
2022-09-09T21:24:20.873Z,68.68
2022-09-09T21:26:49.511Z,68.76
2022-09-09T21:29:18.224Z,68.76
2022-09-09T21:31:46.505Z,68.87
2022-09-09T21:34:15.349Z,68.92
2022-09-09T21:36:43.081Z,68.74
2022-09-09T21:39:11.045Z,68.82
2022-09-09T21:41:39.049Z,69.17
2022-09-09T21:44:08.265Z,69.03
2022-09-09T21:46:37.490Z,69.30
2022-09-09T21:49:05.548Z,69.14
2022-09-09T21:51:33.611Z,69.35
2022-09-09T21:54:02.005Z,69.37
2022-09-09T21:56:30.173Z,69.16
2022-09-09T21:59:09.842Z,68.72
2022-09-09T22:01:40.614Z,68.71
2022-09-09T22:04:09.637Z,68.73
2022-09-09T22:06:40.073Z,68.52
2022-09-09T22:09:08.116Z,68.45
2022-09-09T22:11:36.249Z,68.40
2022-09-09T22:14:05.142Z,68.53
2022-09-09T22:16:33.785Z,68.46
2022-09-09T22:19:03.939Z,68.75
2022-09-09T22:21:33.387Z,68.97
2022-09-09T22:24:05.188Z,68.69
2022-09-09T22:26:37.022Z,68.78
2022-09-09T22:29:06.841Z,69.02
2022-09-09T22:31:37.008Z,69.04
2022-09-09T22:34:06.761Z,68.85
2022-09-09T22:36:35.877Z,68.61
2022-09-09T22:39:05.544Z,68.45
2022-09-09T22:41:33.910Z,68.51
2022-09-09T22:44:02.667Z,68.08
2022-09-09T22:46:30.502Z,68.10
2022-09-09T22:48:59.346Z,68.21
2022-09-09T22:51:28.813Z,68.45
2022-09-09T22:53:58.619Z,68.78
2022-09-09T22:56:28.798Z,68.84
2022-09-09T22:58:57.648Z,68.81
2022-09-09T23:01:27.874Z,68.55
2022-09-09T23:04:03.002Z,68.79
2022-09-09T23:06:32.136Z,68.60
2022-09-09T23:09:02.807Z,68.58
2022-09-09T23:11:35.282Z,68.49
2022-09-09T23:14:06.590Z,68.83
2022-09-09T23:16:38.373Z,68.86
2022-09-09T23:19:10.183Z,69.09
2022-09-09T23:21:40.726Z,69.20
2022-09-09T23:24:15.051Z,68.98
2022-09-09T23:26:45.894Z,69.25
2022-09-09T23:29:14.906Z,69.07
2022-09-09T23:31:45.833Z,68.62
2022-09-09T23:34:14.785Z,68.98
2022-09-09T23:36:42.760Z,68.81
2022-09-09T23:39:13.281Z,68.50
2022-09-09T23:41:41.405Z,68.55
2022-09-09T23:44:10.445Z,68.47
2022-09-09T23:46:38.992Z,68.49
2022-09-09T23:49:10.345Z,68.77
2022-09-09T23:51:38.526Z,68.54
2022-09-09T23:54:07.019Z,68.30
2022-09-09T23:56:39.741Z,68.16
2022-09-09T23:59:08.834Z,68.22
